Skip Navigation Links
NOAA logo - Click to go to the NOAA homepage
NOAA's National Weather Service
Alaska Aviation Weather Unit
  NWS logo - Click to go to the NWS homepage
Left Navbar Graphic     01 AKDT = 09 GMT

   
NOAA is celebrating 200 years of science, service, and stewardship. Visit the NOAA 200th celebration Web site to learn more.
USA.gov is the U.S. Government's official Web portal to all Federal, state and local government Web resources and services.
Facebook
NWS on Facebook

Important Change Regarding the AAWU Web Presence

 

Over the last several months, the AAWU has been working to navigate its webpages to a nationally supported server. Security, as well as other needs, have necessitated the change.  We have been given an extension for the site changeover while we diligently work at addressing feedback received. As of July 14, 2017, aawu.arh.noaa.gov will be discontinued. The new AAWU web address is weather.gov/aawu. It is now live and will run in-parallel with the old site until it is discontinued on July 14, 2017. Please continue to send any feedback or questions regarding the new webpages to nws.ar.aawu.webauthors@noaa.gov.  Thank you for your patience during this time of transition.
AAWU Home :: Display TAF Add Bookmark
TAF PADU 190901Z 1909/2006  VRB03KT P6SM -SHRA OVC008
     FM191200 09008G15KT P6SM -RA SCT015 OVC025=


METAR PADU 190356Z 15010KT 10SM BKN016 OVC030 12/08 A2976 RMK AO2 SLP077
     MH T01170083=

PADU 190456Z 16007KT 10SM -RA OVC014 11/08 A2975 RMK AO2 RAB37
     SLP073 MH P0000 T01060083=

METAR PADU 190556Z AUTO 10004KT 10SM OVC014 11/08 A2974 RMK AO2 RAE46
     SLP070 P0000 60000 T01110083 10139 20106 58007=

METAR PADU 190656Z AUTO 00000KT 10SM OVC010 11/09 A2974 RMK AO2 SLP071
     T01060089=

SPECI PADU 190715Z AUTO 10003KT 9SM OVC008 10/09 A2974 RMK AO2=

METAR PADU 190756Z AUTO 31003KT 10SM OVC008 10/09 A2974 RMK AO2 CIG
     005V012 SLP070 T01000089=

METAR PADU 190856Z AUTO 00000KT 8SM OVC008 10/09 A2973 RMK AO2 RAB14E37
     CIG 004V010 SLP067 P0000 60000 T01000094 401390089 58003=


NOAA's National Weather Service
Alaska Aviation Weather Unit
6930 Sand Lake Road
Anchorage, AK 99502-1845
Disclaimer
Credits
Glossary
Privacy Policy
About Us
Career Opportunities
Contact AAWU Internet Services Site last modified: April, 17th 2012